Station Historical Data
 
Daily Summary for January 23, 2020 Units:  English    Metric   Both
« Previous Day
Next Day »
Daily Weekly Monthly Yearly Custom
  Current: High: Low: Average:
Temperature: 33.3 °F 33.3 °F 14.3 °F 18.9 °F
Dew Point: 24.2 °F 24.6 °F 12.5 °F 16 °F
Humidity: 69% 94% 69% 89%
Wind Speed: 0mph 1.2mph 0mph 0mph
Wind Gust: 0mph 0mph - -
WindCalm - - WNW
Pressure: 30.39 in 30.42 in 30.38 in -
Precipitation: 0.02 in      
Historical Graphs
 
 
Tabular Data for January 23, 2020
Time Temperature Dew Point Pressure Wind Wind Speed Wind Gust Humidity Rainfall Rate (Hourly) solar Conditions
00:00 19.7 °F 16.2 °F 30.41 in Calm     86% 0 in WeatherDisplay:10.37 W/m2 RA
00:05 19.7 °F 16.2 °F 30.41 in Calm     86% 0 in WeatherDisplay:10.37 W/m2 CLR
00:10 19.7 °F 16.2 °F 30.41 in Calm     86% 0 in WeatherDisplay:10.37 W/m2 CLR
00:15 19.6 °F 16.1 °F 30.41 in Calm     86% 0 in WeatherDisplay:10.37 W/m2 CLR
00:20 19.4 °F 15.9 °F 30.41 in Calm     86% 0 in WeatherDisplay:10.37 W/m2 CLR
00:25 19.3 °F 16.1 °F 30.41 in Calm     87% 0 in WeatherDisplay:10.37 W/m2 CLR
00:30 19.2 °F 16 °F 30.41 in Calm     87% 0 in WeatherDisplay:10.37 W/m2 CLR
00:35 19.2 °F 16 °F 30.41 in Calm     87% 0 in WeatherDisplay:10.37 W/m2 CLR
00:40 19 °F 15.8 °F 30.41 in Calm     87% 0 in WeatherDisplay:10.37 W/m2 CLR
00:45 18.9 °F 15.7 °F 30.40 in Calm     87% 0 in WeatherDisplay:10.37 W/m2 CLR
00:50 18.8 °F 15.6 °F 30.41 in Calm     87% 0 in WeatherDisplay:10.37 W/m2 CLR
00:55 18.6 °F 15.4 °F 30.40 in Calm     87% 0 in WeatherDisplay:10.37 W/m2 CLR
01:00 18.4 °F 15.2 °F 30.40 in Calm     87% 0 in WeatherDisplay:10.37 W/m2 CLR
01:05 18.3 °F 15.3 °F 30.39 in Calm     88% 0 in WeatherDisplay:10.37 W/m2 CLR
01:10 18.2 °F 15.2 °F 30.39 in Calm     88% 0 in WeatherDisplay:10.37 W/m2 CLR
01:15 18.1 °F 15.1 °F 30.39 in Calm     88% 0 in WeatherDisplay:10.37 W/m2 CLR
01:20 17.9 °F 14.9 °F 30.39 in Calm     88% 0 in WeatherDisplay:10.37 W/m2 CLR
01:25 17.7 °F 14.8 °F 30.39 in Calm     88% 0 in WeatherDisplay:10.37 W/m2 CLR
01:30 17.6 °F 14.9 °F 30.39 in Calm     89% 0 in WeatherDisplay:10.37 W/m2 CLR
01:35 17.5 °F 14.8 °F 30.39 in Calm     89% 0 in WeatherDisplay:10.37 W/m2 CLR
01:40 17.4 °F 14.7 °F 30.39 in Calm     89% 0 in WeatherDisplay:10.37 W/m2 CLR
01:45 17.3 °F 14.6 °F 30.39 in Calm     89% 0 in WeatherDisplay:10.37 W/m2 CLR
01:50 17.2 °F 14.5 °F 30.39 in Calm     89% 0 in WeatherDisplay:10.37 W/m2 CLR
01:55 17.1 °F 14.4 °F 30.39 in Calm     89% 0 in WeatherDisplay:10.37 W/m2 CLR
02:00 17 °F 14.3 °F 30.40 in Calm     89% 0 in WeatherDisplay:10.37 W/m2 CLR
02:05 16.8 °F 14.1 °F 30.40 in Calm     89% 0 in WeatherDisplay:10.37 W/m2 CLR
02:10 16.8 °F 14.4 °F 30.40 in Calm     90% 0 in WeatherDisplay:10.37 W/m2 CLR
02:15 16.8 °F 14.4 °F 30.40 in Calm     90% 0 in WeatherDisplay:10.37 W/m2 CLR
02:20 16.7 °F 14.3 °F 30.40 in Calm     90% 0 in WeatherDisplay:10.37 W/m2 CLR
02:25 16.6 °F 14.2 °F 30.40 in Calm     90% 0 in WeatherDisplay:10.37 W/m2 CLR
02:30 16.4 °F 14 °F 30.41 in Calm     90% 0 in WeatherDisplay:10.37 W/m2 CLR
02:35 16.4 °F 14 °F 30.40 in Calm     90% 0 in WeatherDisplay:10.37 W/m2 CLR
02:40 16.4 °F 14 °F 30.40 in Calm     90% 0 in WeatherDisplay:10.37 W/m2 CLR
02:45 16.4 °F 14 °F 30.40 in Calm     90% 0 in WeatherDisplay:10.37 W/m2 CLR
02:50 16.3 °F 13.9 °F 30.40 in Calm     90% 0 in WeatherDisplay:10.37 W/m2 CLR
02:55 16.3 °F 13.9 °F 30.40 in Calm     90% 0 in WeatherDisplay:10.37 W/m2 CLR
03:00 16.2 °F 13.8 °F 30.39 in Calm     90% 0 in WeatherDisplay:10.37 W/m2 CLR
03:05 16.3 °F 13.9 °F 30.39 in Calm     90% 0 in WeatherDisplay:10.37 W/m2 CLR
03:10 16.4 °F 14 °F 30.39 in Calm     90% 0 in WeatherDisplay:10.37 W/m2 CLR
03:15 16.4 °F 14 °F 30.39 in Calm     90% 0 in WeatherDisplay:10.37 W/m2 CLR
03:20 16.3 °F 13.9 °F 30.39 in Calm     90% 0 in WeatherDisplay:10.37 W/m2 CLR
03:25 16.2 °F 13.8 °F 30.39 in Calm     90% 0 in WeatherDisplay:10.37 W/m2 CLR
03:30 16.1 °F 13.7 °F 30.39 in Calm     90% 0 in WeatherDisplay:10.37 W/m2 CLR
03:35 16.1 °F 13.7 °F 30.39 in Calm     90% 0 in WeatherDisplay:10.37 W/m2 CLR
03:40 16.2 °F 14 °F 30.39 in Calm     91% 0 in WeatherDisplay:10.37 W/m2 CLR
03:45 16.2 °F 14 °F 30.39 in Calm     91% 0 in WeatherDisplay:10.37 W/m2 CLR
03:50 16.2 °F 14 °F 30.39 in Calm     91% 0 in WeatherDisplay:10.37 W/m2 CLR
03:55 16.1 °F 13.9 °F 30.38 in Calm     91% 0 in WeatherDisplay:10.37 W/m2 CLR
04:00 16 °F 13.8 °F 30.38 in Calm     91% 0 in WeatherDisplay:10.37 W/m2 CLR
04:05 16 °F 13.8 °F 30.38 in Calm     91% 0 in WeatherDisplay:10.37 W/m2 CLR
04:10 15.9 °F 13.7 °F 30.38 in Calm     91% 0 in WeatherDisplay:10.37 W/m2 CLR
04:15 15.8 °F 13.6 °F 30.38 in Calm     91% 0 in WeatherDisplay:10.37 W/m2 CLR
04:20 15.7 °F 13.5 °F 30.38 in Calm     91% 0 in WeatherDisplay:10.37 W/m2 CLR
04:25 15.6 °F 13.4 °F 30.38 in Calm     91% 0 in WeatherDisplay:10.37 W/m2 CLR
04:30 15.4 °F 13.2 °F 30.38 in Calm     91% 0 in WeatherDisplay:10.37 W/m2 CLR
04:35 15.3 °F 13.1 °F 30.38 in Calm     91% 0 in WeatherDisplay:10.37 W/m2 CLR
04:40 15.3 °F 13.1 °F 30.38 in Calm     91% 0 in WeatherDisplay:10.37 W/m2 CLR
04:45 15.2 °F 13 °F 30.38 in Calm     91% 0 in WeatherDisplay:10.37 W/m2 CLR
04:50 15.1 °F 12.9 °F 30.38 in Calm     91% 0 in WeatherDisplay:10.37 W/m2 CLR
04:55 15.1 °F 12.9 °F 30.39 in Calm     91% 0 in WeatherDisplay:10.37 W/m2 CLR
05:00 15.1 °F 13.2 °F 30.39 in Calm     92% 0 in WeatherDisplay:10.37 W/m2 CLR
05:05 15.1 °F 13.2 °F 30.39 in Calm     92% 0 in WeatherDisplay:10.37 W/m2 CLR
05:10 15 °F 13.1 °F 30.39 in Calm     92% 0 in WeatherDisplay:10.37 W/m2 CLR
05:15 14.9 °F 13 °F 30.39 in Calm     92% 0 in WeatherDisplay:10.37 W/m2 CLR
05:20 14.8 °F 12.9 °F 30.39 in Calm     92% 0 in WeatherDisplay:10.37 W/m2 CLR
05:25 14.7 °F 12.8 °F 30.39 in Calm     92% 0 in WeatherDisplay:10.37 W/m2 CLR
05:30 14.6 °F 12.7 °F 30.39 in Calm     92% 0 in WeatherDisplay:10.37 W/m2 CLR
05:35 14.5 °F 12.6 °F 30.38 in Calm     92% 0 in WeatherDisplay:10.37 W/m2 CLR
05:40 14.5 °F 12.6 °F 30.39 in Calm     92% 0 in WeatherDisplay:10.37 W/m2 CLR
05:45 14.6 °F 12.7 °F 30.39 in Calm     92% 0 in WeatherDisplay:10.37 W/m2 CLR
05:50 14.5 °F 12.6 °F 30.39 in Calm     92% 0 in WeatherDisplay:10.37 W/m2 CLR
05:55 14.5 °F 12.6 °F 30.39 in Calm     92% 0 in WeatherDisplay:10.37 W/m2 CLR
06:00 14.4 °F 12.5 °F 30.39 in Calm     92% 0 in WeatherDisplay:10.37 W/m2 CLR
06:05 14.4 °F 12.5 °F 30.39 in Calm     92% 0 in WeatherDisplay:10.37 W/m2 CLR
06:10 14.4 °F 12.5 °F 30.39 in Calm     92% 0 in WeatherDisplay:10.37 W/m2 CLR
06:15 14.4 °F 12.5 °F 30.39 in Calm     92% 0 in WeatherDisplay:10.37 W/m2 CLR
06:20 14.4 °F 12.5 °F 30.39 in Calm     92% 0 in WeatherDisplay:10.37 W/m2 CLR
06:25 14.4 °F 12.7 °F 30.39 in Calm     93% 0 in WeatherDisplay:10.37 W/m2 CLR
06:30 14.4 °F 12.7 °F 30.39 in Calm     93% 0 in WeatherDisplay:10.37 W/m2 CLR
06:35 14.4 °F 12.7 °F 30.39 in Calm     93% 0 in WeatherDisplay:10.37 W/m2 CLR
06:40 14.4 °F 12.7 °F 30.39 in Calm     93% 0 in WeatherDisplay:10.37 W/m2 CLR
06:45 14.4 °F 12.7 °F 30.39 in Calm     93% 0 in WeatherDisplay:10.37 W/m2 CLR
06:50 14.3 °F 12.6 °F 30.39 in Calm     93% 0 in WeatherDisplay:10.37 W/m2 CLR
06:55 14.3 °F 12.6 °F 30.39 in Calm     93% 0 in WeatherDisplay:10.37 W/m2 CLR
07:00 14.3 °F 12.6 °F 30.39 in Calm     93% 0 in WeatherDisplay:10.37 W/m2 CLR
07:05 14.3 °F 12.6 °F 30.39 in Calm     93% 0 in WeatherDisplay:10.37 W/m2 CLR
07:10 14.3 °F 12.6 °F 30.39 in Calm     93% 0 in WeatherDisplay:10.37 W/m2 CLR
07:15 14.4 °F 12.7 °F 30.39 in Calm     93% 0 in WeatherDisplay:10.37 W/m2 CLR
07:20 14.5 °F 12.8 °F 30.39 in Calm     93% 0 in WeatherDisplay:10.37 W/m2 CLR
07:25 14.5 °F 12.8 °F 30.39 in Calm     93% 0 in WeatherDisplay:10.37 W/m2 CLR
07:30 14.6 °F 12.9 °F 30.39 in Calm     93% 0 in WeatherDisplay:10.37 W/m2 CLR
07:35 14.7 °F 13 °F 30.39 in Calm     93% 0 in WeatherDisplay:10.37 W/m2 CLR
07:40 14.8 °F 13.1 °F 30.40 in Calm     93% 0 in WeatherDisplay:10.37 W/m2 CLR
07:45 15 °F 13.6 °F 30.39 in Calm     94% 0 in WeatherDisplay:10.37 W/m2 CLR
07:50 15.3 °F 13.9 °F 30.39 in Calm     94% 0 in WeatherDisplay:10.37 W/m2 CLR
07:55 15.5 °F 14.1 °F 30.39 in Calm     94% 0 in WeatherDisplay:10.37 W/m2 CLR
08:00 15.7 °F 14.3 °F 30.40 in Calm     94% 0 in WeatherDisplay:10.37 W/m2 CLR
08:05 15.8 °F 14.4 °F 30.40 in Calm     94% 0 in WeatherDisplay:10.37 W/m2 CLR
08:10 16 °F 14.6 °F 30.39 in Calm     94% 0 in WeatherDisplay:10.37 W/m2 CLR
08:15 16.3 °F 14.9 °F 30.40 in Calm     94% 0 in WeatherDisplay:10.37 W/m2 CLR
08:20 16.5 °F 15.1 °F 30.40 in Calm     94% 0 in WeatherDisplay:10.37 W/m2 CLR
08:25 16.8 °F 15.4 °F 30.40 in Calm     94% 0 in WeatherDisplay:10.37 W/m2 CLR
08:30 17.1 °F 15.7 °F 30.40 in Calm     94% 0 in WeatherDisplay:10.37 W/m2 CLR
08:35 17.5 °F 16.1 °F 30.40 in Calm     94% 0 in WeatherDisplay:10.37 W/m2 CLR
08:40 17.9 °F 16.5 °F 30.40 in Calm     94% 0 in WeatherDisplay:10.37 W/m2 CLR
08:45 18.3 °F 16.9 °F 30.40 in Calm     94% 0 in WeatherDisplay:10.37 W/m2 CLR
08:50 18.8 °F 17.4 °F 30.40 in Calm     94% 0 in WeatherDisplay:10.37 W/m2 CLR
08:55 19.3 °F 17.9 °F 30.40 in Calm     94% 0 in WeatherDisplay:10.37 W/m2 CLR
09:00 19.7 °F 18.3 °F 30.40 in Calm     94% 0 in WeatherDisplay:10.37 W/m2 CLR
09:05 20.2 °F 18.8 °F 30.40 in Calm     94% 0 in WeatherDisplay:10.37 W/m2 CLR
09:10 20.7 °F 19.2 °F 30.40 in Calm     94% 0 in WeatherDisplay:10.37 W/m2 CLR
09:15 21.2 °F 19.7 °F 30.40 in Calm     94% 0 in WeatherDisplay:10.37 W/m2 CLR
09:20 21.6 °F 19.9 °F 30.40 in Calm     93% 0 in WeatherDisplay:10.37 W/m2 CLR
09:25 21.8 °F 19.8 °F 30.40 in Calm     92% 0 in WeatherDisplay:10.37 W/m2 CLR
09:30 21.9 °F 19.7 °F 30.40 in Calm     91% 0 in WeatherDisplay:10.37 W/m2 CLR
09:35 22.2 °F 19.7 °F 30.41 in Calm     90% 0 in WeatherDisplay:10.37 W/m2 CLR
09:40 22.5 °F 20 °F 30.41 in Calm     90% 0 in WeatherDisplay:10.37 W/m2 CLR
09:45 22.8 °F 20 °F 30.41 in Calm     89% 0 in WeatherDisplay:10.37 W/m2 CLR
09:50 23.3 °F 20.3 °F 30.41 in Calm     88% 0 in WeatherDisplay:10.37 W/m2 CLR
09:55 23.8 °F 20.5 °F 30.41 in Calm     87% 0 in WeatherDisplay:10.37 W/m2 CLR
10:00 24.4 °F 20.8 °F 30.41 in Calm     86% 0 in WeatherDisplay:10.37 W/m2 CLR
10:05 24.8 °F 20.9 °F 30.41 in Calm     85% 0 in WeatherDisplay:10.37 W/m2 CLR
10:10 25.2 °F 21 °F 30.41 in Calm     84% 0 in WeatherDisplay:10.37 W/m2 CLR
10:15 25.7 °F 21.5 °F 30.41 in Calm     84% 0 in WeatherDisplay:10.37 W/m2 CLR
10:20 26.1 °F 21.4 °F 30.41 in WNW 1.2 mph   82% 0 in WeatherDisplay:10.37 W/m2 CLR
10:25 26.6 °F 21.8 °F 30.42 in Calm     82% 0 in WeatherDisplay:10.37 W/m2 CLR
10:30 27 °F 22.2 °F 30.41 in Calm     82% 0 in WeatherDisplay:10.37 W/m2 CLR
10:35 27.5 °F 22.7 °F 30.42 in Calm     82% 0 in WeatherDisplay:10.37 W/m2 CLR
10:40 27.9 °F 22.8 °F 30.42 in Calm     81% 0 in WeatherDisplay:10.37 W/m2 CLR
10:45 28.2 °F 22.5 °F 30.41 in Calm     79% 0 in WeatherDisplay:10.37 W/m2 CLR
10:50 28.7 °F 23 °F 30.41 in Calm     79% 0 in WeatherDisplay:10.37 W/m2 CLR
10:55 29 °F 23 °F 30.40 in Calm     78% 0 in WeatherDisplay:10.37 W/m2 CLR
11:00 29.4 °F 23.4 °F 30.41 in Calm     78% 0 in WeatherDisplay:10.37 W/m2 CLR
11:05 29.9 °F 23.3 °F 30.40 in Calm     76% 0 in WeatherDisplay:10.37 W/m2 CLR
11:10 30.4 °F 23.4 °F 30.41 in Calm     75% 0 in WeatherDisplay:10.37 W/m2 CLR
11:15 31 °F 23.7 °F 30.40 in Calm     74% 0 in WeatherDisplay:10.37 W/m2 CLR
11:20 31.2 °F 23.9 °F 30.40 in Calm     74% 0.01 in WeatherDisplay:10.37 W/m2 RA
11:25 31.5 °F 23.8 °F 30.40 in Calm     73% 0.01 in WeatherDisplay:10.37 W/m2 CLR
11:30 31.8 °F 24.5 °F 30.40 in Calm     74% 0.01 in WeatherDisplay:10.37 W/m2 CLR
11:35 32.1 °F 24.1 °F 30.39 in Calm     72% 0.01 in WeatherDisplay:10.37 W/m2 CLR
11:40 32.3 °F 23.9 °F 30.39 in Calm     71% 0.01 in WeatherDisplay:10.37 W/m2 CLR
11:45 32.6 °F 24.2 °F 30.39 in Calm     71% 0.01 in WeatherDisplay:10.37 W/m2 CLR
11:50 33 °F 24.6 °F 30.39 in Calm     71% 0.02 in WeatherDisplay:10.37 W/m2 RA
11:55 33.3 °F 24.2 °F 30.39 in Calm     69% 0.02 in WeatherDisplay:10.37 W/m2 CLR
Lake Wynonah, (Auburn) PA USA